Terminal Aerodrome Forecast
Issued by NWS

Home | Current Version | Previous Version | Graphics & Text | Print | Product List | Glossary On
Versions: 1 2 3 4 5 6 7 8 9 10 11 12 13 14 15
000
FTUS43 KIWX 291700
TAFSBN
TAF
KSBN 291734Z 2918/3018 30004KT P6SM SKC
     FM300500 35010KT 5SM BR VCSH OVC020
     FM300800 34006KT P6SM OVC010=

USA.gov is the U.S. government's official web portal to all federal, state and local government web resources and services.